Time;durP1;ratioP1;P1;durP2;ratioP2;P2;SDS_P1;SDS_P2;PMS_P1;PMS_P2;Temp;Humidity;BMP_temperature;BMP_pressure;BME280_temperature;BME280_humidity;BME280_pressure;Samples;Min_cycle;Max_cycle;Signal;HPM_P1;HPM_P2
2022/01/05 00:00:10;;;;;;;4.18;1.40;;;7.20;99.90;;;;;;4977315;28;20181;-80
2022/01/05 00:02:36;;;;;;;4.60;1.30;;;7.20;99.90;;;;;;4980405;28;20053;-83
2022/01/05 00:05:03;;;;;;;3.08;1.50;;;7.20;99.90;;;;;;4974848;28;20042;-83
2022/01/05 00:07:28;;;;;;;3.22;1.50;;;7.20;99.90;;;;;;4978597;28;20638;-82
2022/01/05 00:09:54;;;;;;;5.80;1.58;;;8.50;99.90;;;;;;4988046;28;20050;-82
2022/01/05 00:12:19;;;;;;;3.78;1.27;;;7.20;99.90;;;;;;4983707;28;20031;-83
2022/01/05 00:14:45;;;;;;;2.33;1.17;;;7.30;99.90;;;;;;4986216;28;20080;-85
2022/01/05 00:17:11;;;;;;;3.22;1.45;;;7.30;99.90;;;;;;4985208;28;20023;-84
2022/01/05 00:19:36;;;;;;;3.72;1.30;;;7.40;99.90;;;;;;4992771;28;20153;-82
2022/01/05 00:22:03;;;;;;;4.00;1.48;;;7.40;99.90;;;;;;4983917;28;20435;-84
2022/01/05 00:24:29;;;;;;;3.78;1.58;;;7.40;99.90;;;;;;4981544;28;20521;-83
2022/01/05 00:26:54;;;;;;;3.58;1.20;;;7.50;99.90;;;;;;4985635;28;20022;-84
2022/01/05 00:29:20;;;;;;;6.15;1.95;;;7.50;99.90;;;;;;4982427;28;20042;-86
2022/01/05 00:31:45;;;;;;;5.00;1.83;;;7.50;99.90;;;;;;4995294;28;20117;-79
2022/01/05 00:34:12;;;;;;;3.03;1.38;;;;;;;;;;4981236;28;20031;-80
2022/01/05 00:36:39;;;;;;;3.42;1.33;;;;;;;;;;4983938;28;20023;-84
2022/01/05 00:39:04;;;;;;;3.30;1.60;;;7.60;99.90;;;;;;4986460;28;20034;-81
2022/01/05 00:41:30;;;;;;;5.88;1.80;;;9.80;99.90;;;;;;4978535;28;20084;-81
2022/01/05 00:43:56;;;;;;;4.43;1.60;;;;;;;;;;4984917;28;20058;-82
2022/01/05 00:46:21;;;;;;;3.80;1.77;;;7.60;99.90;;;;;;4986351;28;20037;-82
2022/01/05 00:48:47;;;;;;;4.57;2.00;;;7.70;99.90;;;;;;4991393;28;20045;-80
2022/01/05 00:51:15;;;;;;;3.35;1.40;;;7.70;99.90;;;;;;4988193;28;20030;-81
2022/01/05 00:53:41;;;;;;;3.35;1.67;;;7.60;99.90;;;;;;4982420;28;20057;-80
2022/01/05 00:56:07;;;;;;;6.82;1.77;;;;;;;;;;4980700;28;20038;-83
2022/01/05 00:58:33;;;;;;;4.88;1.63;;;7.70;99.90;;;;;;4993617;28;20112;-81
2022/01/05 01:00:58;;;;;;;2.53;1.27;;;7.70;99.90;;;;;;5009674;28;20045;-83
2022/01/05 01:03:27;;;;;;;3.22;1.40;;;9.40;99.90;;;;;;4988095;28;20168;-78
2022/01/05 01:05:53;;;;;;;3.00;1.48;;;7.90;99.90;;;;;;4977846;28;20027;-81
2022/01/05 01:08:18;;;;;;;2.20;1.27;;;7.80;99.90;;;;;;4982641;28;20062;-79
2022/01/05 01:10:46;;;;;;;5.32;1.50;;;;;;;;;;4982499;28;20252;-80
2022/01/05 01:13:16;;;;;;;4.47;1.98;;;7.70;99.90;;;;;;4982469;28;20706;-81
2022/01/05 01:15:42;;;;;;;2.03;1.23;;;;;;;;;;4988128;28;20041;-82
2022/01/05 01:18:08;;;;;;;3.65;1.35;;;;;;;;;;5002084;28;20034;-78
2022/01/05 01:20:34;;;;;;;6.55;2.15;;;7.60;99.90;;;;;;5003918;28;20032;-83
2022/01/05 01:23:00;;;;;;;2.17;1.27;;;7.60;99.90;;;;;;4998810;28;20038;-81
2022/01/05 01:25:28;;;;;;;2.80;1.30;;;7.60;99.90;;;;;;4989979;28;20042;-80
2022/01/05 01:27:54;;;;;;;3.28;1.30;;;7.60;99.90;;;;;;4973320;28;20034;-83
2022/01/05 01:30:20;;;;;;;2.97;1.30;;;;;;;;;;4975412;28;20035;-82
2022/01/05 01:32:46;;;;;;;4.43;1.08;;;;;;;;;;4979846;28;20031;-83
2022/01/05 01:35:14;;;;;;;3.40;1.30;;;7.60;99.90;;;;;;5003487;28;20066;-81
2022/01/05 01:37:39;;;;;;;3.10;1.30;;;7.70;99.90;;;;;;4987656;28;20030;-84
2022/01/05 01:40:07;;;;;;;3.03;1.42;;;7.70;99.90;;;;;;4993307;28;20601;-82
2022/01/05 01:42:32;;;;;;;1.60;1.10;;;7.60;99.90;;;;;;4978881;28;20106;-84
2022/01/05 01:44:58;;;;;;;2.25;1.25;;;7.50;99.90;;;;;;4974423;28;20089;-82
2022/01/05 01:47:24;;;;;;;2.97;1.27;;;;;;;;;;4981259;28;20042;-84
2022/01/05 01:49:50;;;;;;;1.48;1.02;;;7.60;99.90;;;;;;4982057;28;20042;-80
2022/01/05 01:52:15;;;;;;;1.50;1.02;;;7.60;99.90;;;;;;4981291;28;20023;-81
2022/01/05 01:54:55;;;;;;;1.70;1.00;;;7.60;99.90;;;;;;4983487;28;20095;-85
2022/01/05 01:57:50;;;;;;;3.40;1.42;;;7.60;99.90;;;;;;4987385;28;20073;-81
2022/01/05 02:00:15;;;;;;;1.95;1.10;;;7.60;99.90;;;;;;4982193;28;20110;-80
2022/01/05 02:03:04;;;;;;;4.03;1.40;;;;;;;;;;4992247;28;20053;-81
2022/01/05 02:05:30;;;;;;;1.38;0.70;;;;;;;;;;4982680;28;20123;-80
2022/01/05 02:07:56;;;;;;;2.92;1.33;;;;;;;;;;4979081;28;20034;-85
2022/01/05 02:10:22;;;;;;;2.28;1.40;;;7.00;99.90;;;;;;5002786;28;20042;-80
2022/01/05 02:12:50;;;;;;;0.70;0.40;;;7.00;99.90;;;;;;4993917;28;20030;-80
2022/01/05 02:15:16;;;;;;;2.67;1.17;;;7.00;99.90;;;;;;4981656;28;20030;-78
2022/01/05 02:18:20;;;;;;;3.72;1.40;;;6.90;99.90;;;;;;4983985;28;20094;-81
2022/01/05 02:20:38;;;;;;;1.80;0.77;;;6.70;99.90;;;;;;4980542;28;20053;-78
2022/01/05 02:23:05;;;;;;;2.20;0.73;;;6.60;99.90;;;;;;4984524;28;20035;-80
2022/01/05 02:25:30;;;;;;;1.38;0.60;;;6.60;99.90;;;;;;4999779;28;20031;-78
2022/01/05 02:27:56;;;;;;;1.50;0.55;;;6.40;99.90;;;;;;4977494;28;20031;-82
2022/01/05 02:30:25;;;;;;;2.03;0.80;;;6.40;99.90;;;;;;4981674;28;20039;-81
2022/01/05 02:32:51;;;;;;;1.88;0.80;;;6.30;99.90;;;;;;4985038;28;20114;-79
2022/01/05 02:35:17;;;;;;;3.13;1.00;;;6.00;99.90;;;;;;4985481;28;20045;-77
2022/01/05 02:37:45;;;;;;;4.63;1.38;;;6.10;99.90;;;;;;5009095;28;20349;-80
2022/01/05 02:40:13;;;;;;;6.05;1.80;;;6.20;99.90;;;;;;4992244;28;20031;-78
2022/01/05 02:42:39;;;;;;;4.80;1.58;;;6.10;99.90;;;;;;4983376;28;20031;-83
2022/01/05 02:45:05;;;;;;;3.38;1.40;;;;;;;;;;4987197;28;20030;-76
2022/01/05 02:47:31;;;;;;;2.55;1.00;;;6.30;99.90;;;;;;4987424;28;20061;-82
2022/01/05 02:49:58;;;;;;;1.83;0.80;;;6.20;99.90;;;;;;4978521;28;20030;-80
2022/01/05 02:52:24;;;;;;;2.00;0.88;;;6.10;99.90;;;;;;5000888;28;20052;-83
2022/01/05 02:54:49;;;;;;;3.28;1.20;;;6.10;99.90;;;;;;4984048;28;20101;-76
2022/01/05 02:57:15;;;;;;;5.80;1.88;;;6.00;99.90;;;;;;4980378;28;20042;-80
2022/01/05 02:59:41;;;;;;;1.77;0.90;;;6.00;99.90;;;;;;4986118;28;20042;-81
2022/01/05 03:02:06;;;;;;;2.03;0.90;;;6.30;99.90;;;;;;4986125;28;20027;-79
2022/01/05 03:04:32;;;;;;;2.88;0.95;;;5.80;99.90;;;;;;4982700;28;20078;-83
2022/01/05 03:06:57;;;;;;;2.22;1.30;;;5.80;99.90;;;;;;4983681;28;20035;-83
2022/01/05 03:09:23;;;;;;;1.75;0.95;;;5.80;99.90;;;;;;4980897;28;20036;-79
2022/01/05 03:11:48;;;;;;;2.20;1.05;;;5.90;99.90;;;;;;4987046;28;20046;-85
2022/01/05 03:14:14;;;;;;;3.03;1.00;;;5.80;99.90;;;;;;4984538;28;20043;-80
2022/01/05 03:16:40;;;;;;;1.75;0.75;;;5.70;99.90;;;;;;4987628;28;20049;-82
2022/01/05 03:19:05;;;;;;;0.98;0.70;;;5.80;99.90;;;;;;4977464;28;20035;-79
2022/01/05 03:21:31;;;;;;;1.33;0.52;;;;;;;;;;5012667;28;20025;-79
2022/01/05 03:23:57;;;;;;;1.45;0.52;;;5.90;99.90;;;;;;4988179;28;20034;-78
2022/01/05 03:26:22;;;;;;;1.00;0.70;;;5.90;99.90;;;;;;4985280;28;20060;-81
2022/01/05 03:28:48;;;;;;;0.60;0.55;;;;;;;;;;4990165;28;21285;-79
2022/01/05 03:31:14;;;;;;;1.38;0.50;;;6.00;99.90;;;;;;4987633;28;20066;-79
2022/01/05 03:33:39;;;;;;;1.20;0.50;;;5.90;99.90;;;;;;4989202;28;20023;-80
2022/01/05 03:36:05;;;;;;;0.88;0.50;;;6.00;99.90;;;;;;4988330;28;20091;-82
2022/01/05 03:38:31;;;;;;;1.80;0.80;;;6.00;99.90;;;;;;4990751;28;20035;-82
2022/01/05 03:40:57;;;;;;;3.63;0.80;;;6.00;99.90;;;;;;4978213;28;20037;-78
2022/01/05 03:43:26;;;;;;;1.13;0.60;;;6.10;99.90;;;;;;4976537;28;20034;-79
2022/01/05 03:45:51;;;;;;;3.65;1.23;;;6.00;99.90;;;;;;4979652;28;20050;-79
2022/01/05 03:48:21;;;;;;;2.40;0.80;;;5.70;99.90;;;;;;4974105;28;20499;-86
2022/01/05 03:50:47;;;;;;;2.00;0.70;;;5.80;99.90;;;;;;4973506;28;20425;-81
2022/01/05 03:53:13;;;;;;;1.63;0.63;;;5.80;99.90;;;;;;5008624;28;20033;-81
2022/01/05 03:55:41;;;;;;;2.92;0.90;;;5.80;99.90;;;;;;4983805;28;20559;-78
2022/01/05 03:58:07;;;;;;;3.85;0.95;;;5.70;99.90;;;;;;4985551;28;20038;-81
2022/01/05 04:00:35;;;;;;;1.52;0.80;;;5.80;99.90;;;;;;4978083;28;20031;-85
2022/01/05 04:03:01;;;;;;;1.85;0.88;;;5.60;99.90;;;;;;4978038;28;20117;-79
2022/01/05 04:05:28;;;;;;;2.83;1.15;;;9.60;99.90;;;;;;4988326;28;20517;-77
2022/01/05 04:07:54;;;;;;;3.45;0.95;;;;;;;;;;4976391;28;20034;-79
2022/01/05 04:10:20;;;;;;;5.45;1.63;;;5.60;99.90;;;;;;4984206;28;20042;-80
2022/01/05 04:12:47;;;;;;;3.38;1.65;;;5.60;99.90;;;;;;4977269;28;20030;-82
2022/01/05 04:15:13;;;;;;;3.75;1.15;;;5.50;99.90;;;;;;4973809;28;20045;-84
2022/01/05 04:17:39;;;;;;;4.15;1.23;;;5.60;99.90;;;;;;4987837;28;20067;-80
2022/01/05 04:20:05;;;;;;;5.07;1.48;;;5.50;99.90;;;;;;4987662;28;20019;-84
2022/01/05 04:22:31;;;;;;;7.32;1.70;;;5.50;99.90;;;;;;5015864;28;20038;-84
2022/01/05 04:24:56;;;;;;;5.57;1.60;;;5.40;99.90;;;;;;5002156;28;20023;-84
2022/01/05 04:27:22;;;;;;;4.75;1.52;;;5.30;99.90;;;;;;4993830;28;20022;-81
2022/01/05 04:29:47;;;;;;;4.80;1.73;;;5.70;99.90;;;;;;4989159;28;20033;-81
2022/01/05 04:32:13;;;;;;;3.17;1.42;;;5.10;99.90;;;;;;4984854;28;20080;-78
2022/01/05 04:34:39;;;;;;;7.25;1.90;;;5.10;99.90;;;;;;4974623;28;20019;-81
2022/01/05 04:37:06;;;;;;;6.63;1.60;;;5.00;99.90;;;;;;4983975;28;20472;-84
2022/01/05 04:39:33;;;;;;;5.78;1.80;;;4.90;99.90;;;;;;4999490;28;20026;-82
2022/01/05 04:41:59;;;;;;;7.90;2.00;;;;;;;;;;4976927;28;20035;-83
2022/01/05 04:44:25;;;;;;;4.60;1.45;;;4.90;99.90;;;;;;4987255;28;20034;-83
2022/01/05 04:46:50;;;;;;;6.72;2.13;;;4.90;99.90;;;;;;4973198;28;20073;-81
2022/01/05 04:49:16;;;;;;;6.03;1.70;;;5.00;99.90;;;;;;4989602;28;20056;-85
2022/01/05 04:51:41;;;;;;;4.65;2.15;;;4.80;99.90;;;;;;4984013;28;20667;-85
2022/01/05 04:54:07;;;;;;;4.88;2.03;;;4.80;99.90;;;;;;4979309;28;20400;-85
2022/01/05 04:56:33;;;;;;;8.63;2.85;;;4.90;99.90;;;;;;4982876;28;20030;-81
2022/01/05 04:58:59;;;;;;;5.00;2.30;;;5.00;99.90;;;;;;4971685;28;20088;-82
2022/01/05 05:01:25;;;;;;;6.22;2.58;;;5.00;99.90;;;;;;4976892;28;21020;-82
2022/01/05 05:03:51;;;;;;;10.70;3.17;;;4.90;99.90;;;;;;4982732;28;20046;-81
2022/01/05 05:06:16;;;;;;;5.00;2.05;;;4.90;99.90;;;;;;5005103;28;20088;-77
2022/01/05 05:08:42;;;;;;;6.38;2.00;;;4.90;99.90;;;;;;4984862;28;20033;-79
2022/01/05 05:11:08;;;;;;;6.88;2.28;;;5.00;99.90;;;;;;4977340;28;20088;-79
2022/01/05 05:13:34;;;;;;;3.05;1.70;;;7.20;99.90;;;;;;4982227;28;20059;-80
2022/01/05 05:15:59;;;;;;;4.35;1.70;;;6.30;99.90;;;;;;4983826;28;20034;-84
2022/01/05 05:18:25;;;;;;;4.93;1.55;;;5.10;99.90;;;;;;4975620;28;20027;-78
2022/01/05 05:20:51;;;;;;;6.97;1.73;;;5.20;99.90;;;;;;5000277;28;20034;-82
2022/01/05 05:23:17;;;;;;;5.85;2.03;;;5.30;99.90;;;;;;4981786;28;20070;-78
2022/01/05 05:25:43;;;;;;;6.10;1.90;;;;;;;;;;4984436;28;20038;-80
2022/01/05 05:28:09;;;;;;;4.38;1.42;;;;;;;;;;4985137;28;20038;-84
2022/01/05 05:30:36;;;;;;;3.30;1.50;;;;;;;;;;4979005;28;20035;-81
2022/01/05 05:33:03;;;;;;;5.03;1.60;;;5.00;99.90;;;;;;4979138;28;20524;-79
2022/01/05 05:35:29;;;;;;;5.20;1.85;;;;;;;;;;4979847;28;20152;-80
2022/01/05 05:37:56;;;;;;;4.78;1.63;;;5.00;99.90;;;;;;4977051;28;20243;-80
2022/01/05 05:40:21;;;;;;;4.88;1.60;;;4.90;99.90;;;;;;4980379;28;20035;-78
2022/01/05 05:42:48;;;;;;;7.50;2.40;;;4.80;99.90;;;;;;4981405;28;20030;-77
2022/01/05 05:45:14;;;;;;;6.50;2.05;;;;;;;;;;4974833;28;20110;-79
2022/01/05 05:47:39;;;;;;;7.50;1.88;;;4.80;99.90;;;;;;4976817;28;20039;-77
2022/01/05 05:50:06;;;;;;;7.50;1.67;;;4.80;99.90;;;;;;4979209;28;20419;-78
2022/01/05 05:52:32;;;;;;;6.45;2.40;;;;;;;;;;4980876;28;20029;-81
2022/01/05 05:54:58;;;;;;;7.57;1.70;;;4.50;99.90;;;;;;4979085;28;20110;-80
2022/01/05 05:57:23;;;;;;;6.70;1.95;;;4.60;99.90;;;;;;4976449;28;20030;-78
2022/01/05 05:59:49;;;;;;;5.43;1.67;;;4.60;99.90;;;;;;4973606;28;20031;-78
2022/01/05 06:02:15;;;;;;;4.55;1.55;;;;;;;;;;4971685;28;20373;-78
2022/01/05 06:04:41;;;;;;;6.05;1.98;;;4.50;99.90;;;;;;4967504;28;20030;-77
2022/01/05 06:07:06;;;;;;;5.13;1.85;;;4.60;99.90;;;;;;4969967;28;20073;-78
2022/01/05 06:09:32;;;;;;;5.88;2.10;;;4.60;99.90;;;;;;4979924;28;20027;-78
2022/01/05 06:11:58;;;;;;;4.60;1.55;;;;;;;;;;4962311;28;20060;-80
2022/01/05 06:14:24;;;;;;;6.43;1.60;;;;;;;;;;4971008;28;20023;-79
2022/01/05 06:16:50;;;;;;;11.57;2.17;;;;;;;;;;4974421;28;20613;-80
2022/01/05 06:19:16;;;;;;;6.70;1.80;;;;;;;;;;4969838;28;20092;-79
2022/01/05 06:21:44;;;;;;;10.88;2.50;;;4.30;99.90;;;;;;4976750;28;20120;-76
2022/01/05 06:24:10;;;;;;;5.00;1.80;;;;;;;;;;4987779;28;20038;-79
2022/01/05 06:26:36;;;;;;;7.05;2.00;;;;;;;;;;4977931;28;20030;-80
2022/01/05 06:29:02;;;;;;;7.28;2.00;;;;;;;;;;4974607;28;20049;-80
2022/01/05 06:31:28;;;;;;;6.60;1.60;;;;;;;;;;4980521;28;20172;-79
2022/01/05 06:33:54;;;;;;;5.05;1.77;;;;;;;;;;4980015;28;20044;-79
2022/01/05 06:36:19;;;;;;;8.05;2.20;;;4.20;99.90;;;;;;4972880;28;20109;-82
2022/01/05 06:38:45;;;;;;;8.95;1.95;;;;;;;;;;4981255;28;20038;-79
2022/01/05 06:41:11;;;;;;;9.20;1.92;;;4.60;99.90;;;;;;4986801;28;20111;-78
2022/01/05 06:43:37;;;;;;;8.48;1.77;;;;;;;;;;4979867;28;20027;-79
2022/01/05 06:46:03;;;;;;;7.78;1.98;;;;;;;;;;4973017;28;20685;-78
2022/01/05 06:48:29;;;;;;;7.05;2.03;;;;;;;;;;4970230;28;20039;-78
2022/01/05 06:50:54;;;;;;;6.57;2.30;;;4.10;99.90;;;;;;4975204;28;20045;-79
2022/01/05 06:53:20;;;;;;;7.07;2.10;;;;;;;;;;4986232;28;20034;-79
2022/01/05 06:55:46;;;;;;;7.80;2.00;;;;;;;;;;4974589;28;20105;-78
2022/01/05 06:58:12;;;;;;;8.25;2.05;;;4.10;99.90;;;;;;4979666;28;20038;-78
2022/01/05 07:00:38;;;;;;;7.22;2.45;;;4.00;99.90;;;;;;4978207;28;20031;-80
2022/01/05 07:03:04;;;;;;;5.72;2.30;;;3.90;99.90;;;;;;4977809;28;20046;-80
2022/01/05 07:05:31;;;;;;;7.00;2.45;;;;;;;;;;4974904;28;20030;-78
2022/01/05 07:07:57;;;;;;;9.80;2.58;;;;;;;;;;4976458;28;20026;-81
2022/01/05 07:10:23;;;;;;;8.02;2.08;;;;;;;;;;4990513;28;21083;-82
2022/01/05 07:12:49;;;;;;;7.05;1.67;;;;;;;;;;4998114;28;20030;-80
2022/01/05 07:15:15;;;;;;;5.20;1.83;;;;;;;;;;4992392;28;20216;-82
2022/01/05 07:17:41;;;;;;;7.15;1.65;;;;;;;;;;5000046;28;20024;-80
2022/01/05 07:20:08;;;;;;;9.65;2.53;;;;;;;;;;4991022;28;20041;-80
2022/01/05 07:22:34;;;;;;;7.22;2.03;;;;;;;;;;4996490;28;20277;-80
2022/01/05 07:25:00;;;;;;;9.30;2.20;;;4.00;99.90;;;;;;4975458;28;20531;-82
2022/01/05 07:27:25;;;;;;;10.10;2.95;;;4.10;99.90;;;;;;4980660;28;20110;-84
2022/01/05 07:29:51;;;;;;;9.23;2.35;;;4.00;99.90;;;;;;4990865;28;20178;-79
2022/01/05 07:32:17;;;;;;;16.48;2.50;;;3.90;99.90;;;;;;4986253;28;20178;-80
2022/01/05 07:34:43;;;;;;;7.10;1.70;;;3.90;99.90;;;;;;4971488;28;20471;-81
2022/01/05 07:37:12;;;;;;;10.45;2.70;;;5.40;99.90;;;;;;4976825;28;20662;-79
2022/01/05 07:39:38;;;;;;;6.82;2.00;;;3.80;99.90;;;;;;4983820;28;20092;-78
2022/01/05 07:42:04;;;;;;;11.63;2.40;;;3.80;99.90;;;;;;4977230;28;20038;-80
2022/01/05 07:44:30;;;;;;;12.20;2.75;;;3.80;99.90;;;;;;4985101;28;20035;-81
2022/01/05 07:46:55;;;;;;;10.88;2.53;;;6.30;99.90;;;;;;4980638;28;20149;-81
2022/01/05 07:49:21;;;;;;;9.68;2.10;;;3.80;99.90;;;;;;4970015;28;20038;-78
2022/01/05 07:51:46;;;;;;;10.13;2.50;;;3.80;99.90;;;;;;4974045;28;20066;-79
2022/01/05 07:54:12;;;;;;;9.48;2.13;;;3.80;99.90;;;;;;4975781;28;20047;-80
2022/01/05 07:56:38;;;;;;;13.07;2.90;;;;;;;;;;4972461;28;20023;-79
2022/01/05 07:59:04;;;;;;;9.27;2.50;;;3.80;99.90;;;;;;4976417;28;20483;-79
2022/01/05 08:01:30;;;;;;;6.95;2.40;;;;;;;;;;4975838;28;20031;-80
2022/01/05 08:03:56;;;;;;;9.95;2.45;;;3.70;99.90;;;;;;4977304;28;20026;-80
2022/01/05 08:06:22;;;;;;;11.05;2.85;;;3.70;99.90;;;;;;4977906;28;20037;-78
2022/01/05 08:08:49;;;;;;;9.88;2.45;;;3.70;99.90;;;;;;4983951;28;20046;-80
2022/01/05 08:11:15;;;;;;;11.15;2.60;;;3.70;99.90;;;;;;4983025;28;20062;-80
2022/01/05 08:13:41;;;;;;;7.88;2.50;;;;;;;;;;4983107;28;20023;-81
2022/01/05 08:16:07;;;;;;;11.02;2.25;;;3.90;99.90;;;;;;4978542;28;20038;-82
2022/01/05 08:18:33;;;;;;;8.80;2.17;;;3.80;99.90;;;;;;4971670;28;20030;-81
2022/01/05 08:20:58;;;;;;;17.30;3.35;;;3.80;99.90;;;;;;4968567;28;20043;-80
2022/01/05 08:23:25;;;;;;;14.43;2.92;;;3.80;99.90;;;;;;4976326;28;20483;-80
2022/01/05 08:25:51;;;;;;;10.18;2.45;;;3.90;99.90;;;;;;4976262;28;20034;-82
2022/01/05 08:28:17;;;;;;;10.88;2.83;;;3.80;99.90;;;;;;4978778;28;20035;-80
2022/01/05 08:30:44;;;;;;;6.55;2.85;;;3.70;99.90;;;;;;4970436;28;20044;-79
2022/01/05 08:33:10;;;;;;;11.93;2.80;;;3.60;99.90;;;;;;4979326;28;20027;-79
2022/01/05 08:35:35;;;;;;;12.02;2.78;;;3.80;99.90;;;;;;4981666;28;20030;-78
2022/01/05 08:38:01;;;;;;;12.40;2.78;;;3.70;99.90;;;;;;4978277;28;20034;-78
2022/01/05 08:40:27;;;;;;;10.02;3.08;;;3.80;99.90;;;;;;4988479;28;20113;-79
2022/01/05 08:42:54;;;;;;;11.80;3.13;;;3.80;99.90;;;;;;4981697;28;20048;-81
2022/01/05 08:45:20;;;;;;;11.90;3.20;;;3.90;99.90;;;;;;4977260;28;20053;-81
2022/01/05 08:47:48;;;;;;;12.70;2.90;;;3.80;99.90;;;;;;4973308;28;20038;-81
2022/01/05 08:50:23;;;;;;;10.25;2.88;;;3.90;99.90;;;;;;4999848;28;20655;-84
2022/01/05 08:52:49;;;;;;;14.00;2.72;;;3.90;99.90;;;;;;4977457;28;20035;-79
2022/01/05 08:55:18;;;;;;;18.10;3.20;;;3.90;99.90;;;;;;4975086;28;20081;-79
2022/01/05 08:57:44;;;;;;;8.95;2.72;;;4.00;99.90;;;;;;4973221;28;20026;-79
2022/01/05 09:00:11;;;;;;;10.68;3.10;;;4.00;99.90;;;;;;4971364;28;20076;-81
2022/01/05 09:02:37;;;;;;;18.10;2.90;;;4.20;99.90;;;;;;4975282;28;20513;-81
2022/01/05 09:05:04;;;;;;;7.65;2.10;;;4.30;99.90;;;;;;4974996;28;20034;-79
2022/01/05 09:07:30;;;;;;;12.48;3.13;;;4.30;99.90;;;;;;4974150;28;20045;-79
2022/01/05 09:09:55;;;;;;;7.57;2.30;;;2.10;99.90;;;;;;4978215;28;20030;-80
2022/01/05 09:12:21;;;;;;;10.65;2.42;;;4.20;99.90;;;;;;4975532;28;20034;-82
2022/01/05 09:14:47;;;;;;;8.45;2.42;;;4.20;99.90;;;;;;4977127;28;20026;-80
2022/01/05 09:17:13;;;;;;;10.95;2.80;;;4.20;99.90;;;;;;4967300;28;20053;-79
2022/01/05 09:19:38;;;;;;;3.90;1.58;;;5.80;99.90;;;;;;4970782;28;20557;-78
2022/01/05 09:22:04;;;;;;;8.02;2.80;;;4.30;99.90;;;;;;4982638;28;20031;-79
2022/01/05 09:24:32;;;;;;;7.45;1.80;;;4.20;99.90;;;;;;4986251;28;20403;-80
2022/01/05 09:27:02;;;;;;;8.77;2.25;;;4.20;99.90;;;;;;4966062;28;20057;-79
2022/01/05 09:29:31;;;;;;;8.57;1.92;;;4.10;99.90;;;;;;4976162;28;20039;-83
2022/01/05 09:32:02;;;;;;;10.65;1.70;;;4.20;99.90;;;;;;4975515;28;20126;-76
2022/01/05 09:34:28;;;;;;;7.18;2.15;;;4.10;99.90;;;;;;4974437;28;20033;-78
2022/01/05 09:36:59;;;;;;;7.03;1.88;;;4.10;99.90;;;;;;4969356;28;20034;-79
2022/01/05 09:42:09;;;;;;;9.30;1.92;;;4.20;99.90;;;;;;4972509;28;20042;-78
2022/01/05 09:44:39;;;;;;;7.10;2.00;;;4.30;99.90;;;;;;4972423;28;20038;-78
2022/01/05 09:47:42;;;;;;;6.15;1.50;;;4.30;99.90;;;;;;4973724;28;20122;-79
2022/01/05 09:50:14;;;;;;;5.53;1.85;;;4.40;99.90;;;;;;4972463;28;20565;-78
2022/01/05 09:52:40;;;;;;;;;;;4.40;99.90;;;;;;4980707;28;20020;-79
2022/01/05 09:55:07;;;;;;;9.02;2.42;;;4.40;99.90;;;;;;4979145;28;19964;-81
2022/01/05 09:57:33;;;;;;;11.23;2.22;;;4.20;99.90;;;;;;4970060;28;20031;-80
2022/01/05 10:00:00;;;;;;;13.20;2.17;;;4.10;99.90;;;;;;4974878;28;20033;-80
2022/01/05 10:02:26;;;;;;;11.30;2.40;;;4.20;99.90;;;;;;4974411;28;20023;-79
2022/01/05 10:04:53;;;;;;;10.98;2.05;;;4.20;99.90;;;;;;4976947;28;20034;-80
2022/01/05 10:07:19;;;;;;;8.30;2.28;;;4.30;99.90;;;;;;4982842;28;20019;-80
2022/01/05 10:09:46;;;;;;;7.13;2.55;;;4.30;99.90;;;;;;4972333;28;20326;-79
2022/01/05 10:12:13;;;;;;;11.32;2.50;;;4.50;99.90;;;;;;4971536;28;20465;-80
2022/01/05 10:14:46;;;;;;;9.70;2.10;;;4.60;99.90;;;;;;4963932;28;20027;-81
2022/01/05 10:17:14;;;;;;;7.65;2.40;;;4.60;99.90;;;;;;4976097;28;20023;-81
2022/01/05 10:19:41;;;;;;;7.60;1.80;;;4.60;99.90;;;;;;4992801;28;20022;-81
2022/01/05 10:22:33;;;;;;;6.70;1.55;;;4.90;99.90;;;;;;4991641;28;20033;-82
2022/01/05 10:25:04;;;;;;;14.02;2.20;;;4.60;99.90;;;;;;4987296;28;20042;-83
2022/01/05 10:27:30;;;;;;;6.38;1.77;;;4.60;99.90;;;;;;4973819;28;20157;-80
2022/01/05 10:30:04;;;;;;;8.80;1.70;;;4.70;99.90;;;;;;4967321;28;20122;-81
2022/01/05 10:32:32;;;;;;;8.18;2.22;;;4.60;99.90;;;;;;4968206;28;20057;-82
2022/01/05 10:35:07;;;;;;;8.15;1.90;;;4.60;99.90;;;;;;4971007;28;20038;-79
2022/01/05 10:37:33;;;;;;;8.30;1.95;;;4.50;99.90;;;;;;4976541;28;20037;-79
2022/01/05 10:40:20;;;;;;;9.60;2.58;;;4.50;99.90;;;;;;4979142;28;20037;-82
2022/01/05 10:42:47;;;;;;;10.00;2.30;;;4.60;99.90;;;;;;4968894;28;20045;-79
2022/01/05 10:45:16;;;;;;;10.02;2.00;;;4.60;99.90;;;;;;4974288;28;20075;-81
2022/01/05 10:47:42;;;;;;;6.78;2.20;;;4.70;99.90;;;;;;4972719;28;20069;-79
2022/01/05 10:50:19;;;;;;;9.25;2.38;;;4.70;99.90;;;;;;4975018;28;20112;-78
2022/01/05 10:52:53;;;;;;;11.23;2.00;;;4.70;99.90;;;;;;4975535;28;20027;-79
2022/01/05 10:55:21;;;;;;;10.63;2.50;;;4.60;99.90;;;;;;4974651;28;20051;-81
2022/01/05 10:58:11;;;;;;;7.63;1.88;;;4.50;99.90;;;;;;4973056;28;20029;-80
2022/01/05 11:00:39;;;;;;;10.03;2.40;;;4.60;99.90;;;;;;4976431;28;20583;-79
2022/01/05 11:03:23;;;;;;;11.63;2.75;;;4.70;99.90;;;;;;4972498;28;20049;-79
2022/01/05 11:06:11;;;;;;;8.98;2.17;;;4.80;99.90;;;;;;4977001;28;20492;-81
2022/01/05 11:08:46;;;;;;;11.43;2.38;;;4.70;99.90;;;;;;4980515;28;20031;-81
2022/01/05 11:11:44;;;;;;;8.73;2.17;;;4.90;99.90;;;;;;4982171;28;20431;-77
2022/01/05 11:14:11;;;;;;;7.93;1.98;;;4.90;99.90;;;;;;4976881;28;20054;-79
2022/01/05 11:16:39;;;;;;;9.48;2.92;;;5.00;99.90;;;;;;4969075;28;20090;-80
2022/01/05 11:19:33;;;;;;;12.02;2.85;;;5.00;99.90;;;;;;4972021;28;21153;-81
2022/01/05 11:22:16;;;;;;;7.10;2.70;;;5.00;99.90;;;;;;4966861;28;20110;-80
2022/01/05 11:24:52;;;;;;;10.77;2.70;;;4.90;99.90;;;;;;4974858;28;20030;-79
2022/01/05 11:27:25;;;;;;;8.93;2.03;;;4.90;99.90;;;;;;4979475;28;20442;-80
2022/01/05 11:29:51;;;;;;;8.95;2.60;;;5.60;99.90;;;;;;4971298;28;20114;-81
2022/01/05 11:32:20;;;;;;;10.50;2.58;;;5.00;99.90;;;;;;4969283;28;20487;-78
2022/01/05 11:34:47;;;;;;;10.80;1.60;;;6.50;99.90;;;;;;4972211;28;20051;-79
2022/01/05 11:37:13;;;;;;;11.63;2.00;;;4.90;99.90;;;;;;4980094;28;20118;-80
2022/01/05 11:39:45;;;;;;;8.23;1.73;;;5.60;99.90;;;;;;4965574;28;20027;-80
2022/01/05 11:42:14;;;;;;;8.23;1.75;;;4.90;99.90;;;;;;4975812;28;20039;-81
2022/01/05 11:44:50;;;;;;;12.07;2.13;;;5.80;99.90;;;;;;4970130;28;20026;-79
2022/01/05 11:47:23;;;;;;;14.40;2.28;;;5.10;99.90;;;;;;4977870;28;20026;-79
2022/01/05 11:49:50;;;;;;;12.82;2.65;;;5.10;99.90;;;;;;4976187;28;20531;-81
2022/01/05 11:52:16;;;;;;;8.18;2.30;;;5.10;99.90;;;;;;4974432;28;20197;-81
2022/01/05 11:55:04;;;;;;;12.43;2.55;;;5.10;99.90;;;;;;4962226;28;20389;-84
2022/01/05 11:57:30;;;;;;;12.73;3.25;;;5.20;99.90;;;;;;4983210;28;20028;-81
2022/01/05 12:00:18;;;;;;;9.38;2.63;;;5.30;99.90;;;;;;4976635;28;20492;-79
2022/01/05 12:02:44;;;;;;;6.28;1.95;;;5.20;99.90;;;;;;4974562;28;20035;-79
2022/01/05 12:05:10;;;;;;;9.20;2.20;;;5.20;99.90;;;;;;4969751;28;20152;-80
2022/01/05 12:07:55;;;;;;;5.75;1.70;;;5.20;99.90;;;;;;4965973;28;20065;-79
2022/01/05 12:10:23;;;;;;;7.18;1.80;;;5.10;99.90;;;;;;4982298;28;20039;-81
2022/01/05 12:13:01;;;;;;;6.07;1.35;;;5.30;99.90;;;;;;4989804;28;20087;-79
2022/01/05 12:15:42;;;;;;;6.43;1.48;;;5.10;99.90;;;;;;4980619;28;20026;-82
2022/01/05 12:18:08;;;;;;;7.43;1.90;;;5.10;99.90;;;;;;4981788;28;20588;-81
2022/01/05 12:20:35;;;;;;;8.32;2.08;;;5.20;99.90;;;;;;4984419;28;20121;-84
2022/01/05 12:23:25;;;;;;;7.80;2.15;;;5.10;99.90;;;;;;4989923;28;20080;-80
2022/01/05 12:26:03;;;;;;;4.47;1.10;;;5.10;99.90;;;;;;4978305;28;20105;-80
2022/01/05 12:28:31;;;;;;;4.50;1.40;;;5.10;99.90;;;;;;4981407;28;20085;-80
2022/01/05 12:30:57;;;;;;;8.50;2.30;;;5.10;99.90;;;;;;4983537;28;20069;-81
2022/01/05 12:33:23;;;;;;;6.43;1.52;;;5.10;99.90;;;;;;4976659;28;20031;-82
2022/01/05 12:35:57;;;;;;;8.80;1.77;;;5.00;99.90;;;;;;4976060;28;20031;-81
2022/01/05 12:38:34;;;;;;;7.03;1.85;;;5.00;99.90;;;;;;4974673;28;20084;-83
2022/01/05 12:41:30;;;;;;;11.63;1.70;;;4.90;99.90;;;;;;4977905;28;20088;-83
2022/01/05 12:43:59;;;;;;;9.25;1.65;;;5.00;99.90;;;;;;4975928;28;20035;-83
2022/01/05 12:46:37;;;;;;;9.25;1.88;;;5.00;99.90;;;;;;4972678;28;20399;-82
2022/01/05 12:49:17;;;;;;;9.80;2.72;;;5.10;99.90;;;;;;4980200;28;20054;-79
2022/01/05 12:51:46;;;;;;;8.65;1.70;;;5.30;99.90;;;;;;4983500;28;20026;-76
2022/01/05 12:54:18;;;;;;;9.75;1.67;;;5.30;99.90;;;;;;4974821;28;20081;-79
2022/01/05 12:56:47;;;;;;;7.70;1.98;;;5.30;99.90;;;;;;4973307;28;20037;-81
2022/01/05 12:59:24;;;;;;;8.70;2.00;;;5.20;99.90;;;;;;4983773;28;20392;-80
2022/01/05 13:01:54;;;;;;;10.35;1.77;;;5.10;99.90;;;;;;4976131;28;20109;-79
2022/01/05 13:04:24;;;;;;;13.10;3.58;;;5.00;99.90;;;;;;4976812;28;20033;-81
2022/01/05 13:06:52;;;;;;;12.65;3.03;;;5.00;99.90;;;;;;4971829;28;20038;-82
2022/01/05 13:09:45;;;;;;;8.75;2.60;;;5.10;99.90;;;;;;4999789;28;20046;-84
2022/01/05 13:12:13;;;;;;;11.70;2.50;;;5.00;99.90;;;;;;4971125;28;20027;-81
2022/01/05 13:14:41;;;;;;;10.45;2.05;;;5.10;99.90;;;;;;5011047;28;20020;-83
2022/01/05 13:17:19;;;;;;;4.53;1.63;;;5.00;99.90;;;;;;4983808;28;20081;-78